createdAt,value
2023-05-30T00:00:33.942Z,99956.33
2023-05-30T00:03:20.972Z,99959.36
2023-05-30T00:05:47.642Z,99960.14
2023-05-30T00:08:14.344Z,99959.02
2023-05-30T00:10:41.065Z,99956.96
2023-05-30T00:13:07.750Z,99954.19
2023-05-30T00:15:34.388Z,99953.15
2023-05-30T00:18:01.079Z,99955.30
2023-05-30T00:20:30.339Z,99953.14
2023-05-30T00:23:00.044Z,99955.59
2023-05-30T00:25:26.891Z,99956.24
2023-05-30T00:27:53.468Z,99952.58
2023-05-30T00:30:20.231Z,99954.34
2023-05-30T00:32:46.951Z,99952.60
2023-05-30T00:35:13.582Z,99952.54
2023-05-30T00:37:40.323Z,99951.04
2023-05-30T00:40:08.253Z,99954.71
2023-05-30T00:42:37.264Z,99959.10
2023-05-30T00:45:04.457Z,99958.38
2023-05-30T00:47:32.195Z,99957.98
2023-05-30T00:49:59.677Z,99957.98
2023-05-30T00:52:26.591Z,99959.44
2023-05-30T00:54:53.709Z,99959.05
2023-05-30T00:57:21.129Z,99961.93
2023-05-30T00:59:48.959Z,99962.42
2023-05-30T01:02:17.652Z,99960.52
2023-05-30T01:04:44.339Z,99961.15
2023-05-30T01:07:11.806Z,99964.41
2023-05-30T01:09:38.848Z,99967.60
2023-05-30T01:12:18.293Z,99972.46
2023-05-30T01:14:58.283Z,99970.73
2023-05-30T01:17:27.984Z,99970.26
2023-05-30T01:20:06.322Z,99968.36
2023-05-30T01:23:20.992Z,99966.38
2023-05-30T01:26:00.449Z,99964.84
2023-05-30T01:28:33.118Z,99966.05
2023-05-30T01:31:01.664Z,99965.09
2023-05-30T01:33:29.601Z,99964.21
2023-05-30T01:35:56.393Z,99958.57
2023-05-30T01:38:26.360Z,99955.79
2023-05-30T01:40:59.518Z,99956.83
2023-05-30T01:43:26.327Z,99955.88
2023-05-30T01:46:08.572Z,99951.11
2023-05-30T01:48:44.022Z,99948.49
2023-05-30T01:51:21.115Z,99951.36
2023-05-30T01:53:53.343Z,99952.80
2023-05-30T01:56:21.743Z,99948.03
2023-05-30T01:58:51.839Z,99949.79
2023-05-30T02:01:20.548Z,99953.44
2023-05-30T02:03:47.792Z,99953.58
2023-05-30T02:06:14.402Z,99949.69
2023-05-30T02:08:40.955Z,99948.02
2023-05-30T02:11:07.533Z,99945.56
2023-05-30T02:13:34.054Z,99945.41
2023-05-30T02:16:00.774Z,99947.31
2023-05-30T02:18:27.925Z,99947.80
2023-05-30T02:20:55.684Z,99948.03
2023-05-30T02:23:23.874Z,99946.84
2023-05-30T02:25:51.321Z,99954.95
2023-05-30T02:28:33.904Z,99957.58
2023-05-30T02:31:01.807Z,99962.98
2023-05-30T02:33:28.421Z,99962.52
2023-05-30T02:35:55.294Z,99966.42
2023-05-30T02:38:23.904Z,99969.13
2023-05-30T02:40:52.406Z,99969.61
2023-05-30T02:43:21.285Z,99972.63
2023-05-30T02:45:49.007Z,99970.79
2023-05-30T02:48:16.373Z,99973.81
2023-05-30T02:50:43.056Z,99973.64
2023-05-30T02:53:14.368Z,99976.60
2023-05-30T02:55:42.957Z,99980.34
2023-05-30T02:58:41.994Z,99982.41
2023-05-30T03:01:32.090Z,99981.77
2023-05-30T03:03:59.999Z,99979.62
2023-05-30T03:06:36.536Z,99978.90
2023-05-30T03:09:11.661Z,99983.73
2023-05-30T03:11:38.502Z,99981.75
2023-05-30T03:14:04.996Z,99982.16
2023-05-30T03:16:31.651Z,99984.06
2023-05-30T03:18:59.480Z,99981.34
2023-05-30T03:21:26.052Z,99983.64
2023-05-30T03:23:52.950Z,99985.47
2023-05-30T03:26:22.969Z,99988.39
2023-05-30T03:28:49.795Z,99989.09
2023-05-30T03:31:21.492Z,99993.04
2023-05-30T03:33:48.588Z,99993.39
2023-05-30T03:36:18.129Z,99994.98
2023-05-30T03:38:45.039Z,99994.88
2023-05-30T03:41:11.987Z,99996.02
2023-05-30T03:43:38.623Z,99998.77
2023-05-30T03:46:05.408Z,99997.22
2023-05-30T03:48:32.156Z,99999.52
2023-05-30T03:50:59.131Z,100000.23
2023-05-30T03:53:26.151Z,100002.41
2023-05-30T03:55:52.780Z,100003.81
2023-05-30T03:58:19.345Z,100005.93
2023-05-30T04:00:46.067Z,100004.34
2023-05-30T04:03:12.745Z,100002.75
2023-05-30T04:05:39.477Z,100002.64
2023-05-30T04:08:06.283Z,100001.02
2023-05-30T04:10:33.020Z,100001.19
2023-05-30T04:13:00.742Z,100000.50
2023-05-30T04:15:27.940Z,100003.64
2023-05-30T04:17:55.203Z,100003.41
2023-05-30T04:20:22.132Z,100001.41
2023-05-30T04:22:48.946Z,100004.67
2023-05-30T04:25:17.190Z,100002.19
2023-05-30T04:27:50.016Z,100000.82
2023-05-30T04:30:18.580Z,100004.98
2023-05-30T04:32:45.720Z,100003.89
2023-05-30T04:35:16.144Z,100006.69
2023-05-30T04:37:45.800Z,100010.88
2023-05-30T04:40:13.991Z,100009.56
2023-05-30T04:42:41.582Z,100010.20
2023-05-30T04:45:10.169Z,100015.11
2023-05-30T04:47:39.090Z,100017.17
2023-05-30T04:50:06.591Z,100016.04
2023-05-30T04:52:34.061Z,100011.39
2023-05-30T04:55:00.964Z,100010.91
2023-05-30T04:57:40.813Z,100013.47
2023-05-30T05:00:22.112Z,100018.36
2023-05-30T05:02:48.965Z,100020.99
2023-05-30T05:05:15.662Z,100022.66
2023-05-30T05:07:42.930Z,100022.66
2023-05-30T05:10:10.697Z,100025.16
2023-05-30T05:12:37.550Z,100020.59
2023-05-30T05:15:04.788Z,100020.77
2023-05-30T05:17:45.843Z,100026.27
2023-05-30T05:20:39.224Z,100028.42
2023-05-30T05:26:36.147Z,100032.14
2023-05-30T05:29:12.112Z,100025.31
2023-05-30T05:38:39.096Z,100023.70
2023-05-30T06:00:07.320Z,100026.70
2023-05-30T06:17:52.907Z,100021.51
2023-05-30T06:39:59.187Z,100038.58
2023-05-30T06:43:51.641Z,100039.95
2023-05-30T06:51:55.299Z,100045.30
2023-05-30T07:25:27.357Z,100042.83
2023-05-30T07:30:47.036Z,100040.58
2023-05-30T08:13:14.817Z,100043.97
2023-05-30T08:40:43.231Z,100041.23
2023-05-30T08:56:10.865Z,100045.85
2023-05-30T08:59:17.893Z,100050.02
2023-05-30T09:02:36.931Z,100050.30
2023-05-30T09:05:42.887Z,100049.59
2023-05-30T09:08:25.599Z,100048.96
2023-05-30T09:11:30.773Z,100047.86
2023-05-30T09:14:07.292Z,100051.13
2023-05-30T09:17:14.486Z,100052.08
2023-05-30T09:20:21.011Z,100053.45
2023-05-30T09:23:22.236Z,100052.14
2023-05-30T09:25:53.679Z,100055.45
2023-05-30T09:28:35.321Z,100059.50
2023-05-30T09:31:29.630Z,100057.57
2023-05-30T09:37:52.026Z,100047.90
2023-05-30T09:40:30.633Z,100046.30
2023-05-30T09:46:51.839Z,100038.11
2023-05-30T09:49:51.752Z,100038.40
2023-05-30T09:52:25.175Z,100036.16
2023-05-30T09:58:43.319Z,100037.45
2023-05-30T10:01:30.261Z,100036.24
2023-05-30T10:04:45.886Z,100037.82
2023-05-30T10:09:59.961Z,100049.80
2023-05-30T10:12:44.849Z,100046.32
2023-05-30T10:16:16.768Z,100047.02
2023-05-30T10:19:48.089Z,100046.14
2023-05-30T10:26:46.816Z,100037.64
2023-05-30T10:29:29.572Z,100039.36
2023-05-30T10:32:00.060Z,100035.91
2023-05-30T10:34:55.179Z,100033.79
2023-05-30T10:37:22.173Z,100035.30
2023-05-30T10:40:26.718Z,100028.43
2023-05-30T10:43:17.972Z,100032.75
2023-05-30T10:46:00.728Z,100025.79
2023-05-30T10:48:54.108Z,100028.11
2023-05-30T10:51:23.051Z,100029.16
2023-05-30T10:53:55.603Z,100031.11
2023-05-30T10:56:30.554Z,100030.24
2023-05-30T10:58:58.367Z,100029.22
2023-05-30T11:01:42.192Z,100026.23
2023-05-30T11:04:15.863Z,100020.17
2023-05-30T11:06:46.589Z,100020.94
2023-05-30T11:09:18.256Z,100018.35
2023-05-30T11:11:48.925Z,100017.29
2023-05-30T11:14:15.749Z,100019.05
2023-05-30T11:17:42.901Z,100017.23
2023-05-30T11:20:52.644Z,100014.20
2023-05-30T11:24:25.913Z,100016.63
2023-05-30T11:27:09.303Z,100018.23
2023-05-30T11:29:40.460Z,100018.89
2023-05-30T11:32:21.999Z,100019.08
2023-05-30T11:35:15.333Z,100018.40
2023-05-30T11:37:46.491Z,100017.83
2023-05-30T11:40:27.266Z,100014.45
2023-05-30T11:43:22.848Z,100004.47
2023-05-30T11:46:02.959Z,100002.20
2023-05-30T11:51:39.797Z,99991.84
2023-05-30T11:54:37.067Z,99987.30
2023-05-30T11:57:56.554Z,99988.09
2023-05-30T12:00:49.128Z,99986.84
2023-05-30T12:03:17.799Z,99983.48
2023-05-30T12:05:51.649Z,99982.04
2023-05-30T12:08:53.268Z,99979.30
2023-05-30T12:16:33.181Z,99975.10
2023-05-30T12:19:15.200Z,99969.88
2023-05-30T12:21:46.902Z,99970.78
2023-05-30T12:24:14.346Z,99969.44
2023-05-30T12:27:07.244Z,99968.10
2023-05-30T12:29:37.181Z,99966.80
2023-05-30T12:32:06.853Z,99964.02
2023-05-30T12:35:11.669Z,99958.07
2023-05-30T12:37:41.316Z,99954.34
2023-05-30T12:40:16.457Z,99956.17
2023-05-30T12:42:48.256Z,99946.51
2023-05-30T12:45:28.446Z,99948.66
2023-05-30T12:48:04.493Z,99946.11
2023-05-30T12:50:31.703Z,99945.30
2023-05-30T12:52:58.376Z,99943.89
2023-05-30T12:55:25.332Z,99944.56
2023-05-30T12:57:56.505Z,99940.06
2023-05-30T13:00:23.256Z,99951.59
2023-05-30T13:02:57.572Z,99956.14
2023-05-30T13:05:24.428Z,99959.07
2023-05-30T13:07:52.914Z,99955.52
2023-05-30T13:10:20.012Z,99955.61
2023-05-30T13:12:50.580Z,99949.59
2023-05-30T13:15:28.002Z,99948.64
2023-05-30T13:17:56.371Z,99949.26
2023-05-30T13:20:24.199Z,99943.64
2023-05-30T13:22:51.227Z,99942.05
2023-05-30T13:25:20.047Z,99943.48
2023-05-30T13:27:49.059Z,99940.90
2023-05-30T13:30:26.234Z,99935.80
2023-05-30T13:33:04.496Z,99938.05
2023-05-30T13:35:45.414Z,99936.29
2023-05-30T13:38:15.051Z,99936.86
2023-05-30T13:43:54.626Z,99920.06
2023-05-30T13:46:26.485Z,99929.20
2023-05-30T13:48:55.219Z,99929.56
2023-05-30T13:51:22.743Z,99932.86
2023-05-30T13:56:22.704Z,99946.28
2023-05-30T13:58:54.951Z,99944.35
2023-05-30T14:01:24.529Z,99943.19
2023-05-30T14:03:53.120Z,99953.29
2023-05-30T14:06:58.653Z,99953.48
2023-05-30T14:09:53.848Z,99961.50
2023-05-30T14:12:37.083Z,99955.99
2023-05-30T14:15:47.052Z,99965.45
2023-05-30T14:19:11.924Z,99971.88
2023-05-30T14:22:00.677Z,99969.06
2023-05-30T14:25:18.118Z,99970.23
2023-05-30T14:28:48.867Z,99969.23
2023-05-30T14:34:53.554Z,99967.60
2023-05-30T14:42:13.853Z,99969.03
2023-05-30T14:46:10.750Z,99958.13
2023-05-30T14:50:33.037Z,99959.77
2023-05-30T15:01:31.482Z,99958.30
2023-05-30T15:04:35.582Z,99960.19
2023-05-30T15:08:00.825Z,99960.77
2023-05-30T15:40:19.932Z,99944.88
2023-05-30T15:48:17.836Z,99939.42
2023-05-30T15:51:13.982Z,99935.86
2023-05-30T15:53:51.889Z,99937.77
2023-05-30T15:56:37.852Z,99936.58
2023-05-30T17:03:03.843Z,99995.92
2023-05-30T17:05:40.190Z,99996.22
2023-05-30T17:08:32.429Z,100006.29
2023-05-30T17:17:01.667Z,100014.14
2023-05-30T17:18:49.574Z,100023.05
2023-05-30T19:42:14.459Z,100070.64
2023-05-30T19:44:47.090Z,100070.69
2023-05-30T19:47:55.146Z,100074.86
2023-05-30T19:51:15.121Z,100080.04
2023-05-30T19:53:54.712Z,100086.95
2023-05-30T19:57:13.937Z,100086.88
2023-05-30T19:59:37.761Z,100091.36
2023-05-30T20:02:27.860Z,100095.66
2023-05-30T20:05:41.653Z,100096.15
2023-05-30T20:08:38.781Z,100100.96
2023-05-30T20:11:12.061Z,100105.95
2023-05-30T20:13:39.578Z,100108.20
2023-05-30T20:20:01.962Z,100104.18
2023-05-30T20:31:20.594Z,100116.59
2023-05-30T20:37:17.832Z,100131.52
2023-05-30T20:40:19.168Z,100132.40
2023-05-30T20:44:00.386Z,100130.00
2023-05-30T20:46:28.186Z,100127.69
2023-05-30T20:58:33.877Z,100133.23
2023-05-30T21:07:03.022Z,100138.98
2023-05-30T21:09:40.406Z,100133.77
2023-05-30T21:12:14.861Z,100132.81
2023-05-30T21:14:41.960Z,100126.30
2023-05-30T21:17:17.767Z,100128.35
2023-05-30T21:19:50.206Z,100130.05
2023-05-30T21:22:19.473Z,100134.02
2023-05-30T21:24:52.599Z,100132.52
2023-05-30T21:27:44.264Z,100139.71
2023-05-30T21:30:28.032Z,100142.36
2023-05-30T21:33:58.629Z,100145.11
2023-05-30T21:36:42.743Z,100145.61
2023-05-30T21:39:35.354Z,100144.56
2023-05-30T21:42:08.037Z,100142.75
2023-05-30T21:44:38.985Z,100139.39
2023-05-30T21:47:06.548Z,100140.10
2023-05-30T21:49:33.776Z,100135.30
2023-05-30T21:52:08.301Z,100138.34
2023-05-30T21:55:26.217Z,100139.14
2023-05-30T21:57:56.046Z,100138.45
2023-05-30T22:00:34.391Z,100138.16
2023-05-30T22:03:04.375Z,100141.97
2023-05-30T22:05:35.458Z,100141.62
2023-05-30T22:08:07.432Z,100138.63
2023-05-30T22:10:51.208Z,100137.71
2023-05-30T22:13:20.618Z,100137.65
2023-05-30T22:15:50.145Z,100137.63
2023-05-30T22:18:17.518Z,100135.46
2023-05-30T22:20:45.103Z,100137.50
2023-05-30T22:23:12.129Z,100137.17
2023-05-30T22:25:44.397Z,100132.52
2023-05-30T22:28:11.301Z,100134.08
2023-05-30T22:30:38.061Z,100135.14
2023-05-30T22:33:07.356Z,100134.55
2023-05-30T22:35:35.325Z,100134.60
2023-05-30T22:38:11.310Z,100135.75
2023-05-30T22:40:38.427Z,100134.10
2023-05-30T22:43:08.133Z,100131.98
2023-05-30T22:45:36.739Z,100130.88
2023-05-30T22:48:03.987Z,100131.08
2023-05-30T22:50:31.114Z,100131.44
2023-05-30T22:52:58.192Z,100126.70
2023-05-30T22:55:28.270Z,100120.52
2023-05-30T22:57:55.193Z,100120.64
2023-05-30T23:00:22.594Z,100115.39
2023-05-30T23:02:49.722Z,100115.40
2023-05-30T23:05:20.780Z,100113.92
2023-05-30T23:07:49.156Z,100115.71
2023-05-30T23:10:19.902Z,100115.98
2023-05-30T23:12:50.680Z,100116.06
2023-05-30T23:15:20.030Z,100115.03
2023-05-30T23:17:48.511Z,100111.84
2023-05-30T23:20:18.219Z,100106.40
2023-05-30T23:22:51.087Z,100107.61
2023-05-30T23:25:24.677Z,100108.88
2023-05-30T23:27:58.815Z,100109.84
2023-05-30T23:30:29.045Z,100109.39
2023-05-30T23:32:56.613Z,100109.73
2023-05-30T23:35:27.039Z,100106.11
2023-05-30T23:37:55.818Z,100109.88
2023-05-30T23:40:22.844Z,100108.45
2023-05-30T23:42:51.229Z,100108.95
2023-05-30T23:45:18.462Z,100113.11
2023-05-30T23:47:45.993Z,100105.55
2023-05-30T23:50:15.415Z,100110.17
2023-05-30T23:52:42.724Z,100103.34
2023-05-30T23:55:12.625Z,100102.14
2023-05-30T23:57:49.106Z,100105.27
